Mendota Heights, MN (55120)

8:22 AM CST on February 10, 2016 (GMT -0600)
Highview Park Area | | Change Station
CLOSE
Current Station
Personal Weather Station
Location: Eagan, MN
Elevation: 906 ft
Nearby Weather Stations

Elev 906 ft 44.85 °N, 93.17 °W | Updated 2 minutes ago

Mostly Cloudy
Mostly Cloudy
3.6 °F
Feels Like 4 °F
N
0.7
Wind Variable Wind from North
Gusts 3.8 mph

Today
High -- | Low -- °F
--% Chance of Precip.
Yesterday
High -- | Low -- °F
Precip. -- in
Pressure 30.19 in
Visibility 10.0 miles
Clouds Few 12000 ft
Mostly Cloudy 13000 ft
Windchill 4 °F
Dew Point -11 °F
Humidity 49%
Rainfall 0.00 in
Snow Depth Not available.
7:21 AM 5:33 PM
Waxing Crescent, 5% visible
METAR KMSP 101353Z 01005KT 10SM FEW120 BKN130 M16/M21 A3013 RMK AO2 SLP222 T11561206
Pressure 30.19 in
Visibility 10.0 miles
Clouds Few 12000 ft
Mostly Cloudy 13000 ft
Windchill 4 °F
Dew Point -11 °F
Humidity 49%
Rainfall 0.00 in
Snow Depth Not available.
7:21 AM 5:33 PM
Waxing Crescent, 5% visible
METAR KMSP 101353Z 01005KT 10SM FEW120 BKN130 M16/M21 A3013 RMK AO2 SLP222 T11561206

10-Day Weather Forecast

Almanac

Astronomy

Feb. 10, 2016 Rise Set
Actual Time
Civil Twilight
Nautical Twilight
Astronomical Twilight
Moon
Length of Visible Light
Length of Day
Tomorrow will be .
, % of the Moon is Illuminated

Today's Extremes

State Highs State Lows

Community

WunderPhotos

Upload Photos

1,891,850 photos uploaded!

WunderBlog® & News

Nearby

Air Quality

  Air Quality AQ Index Pollutant
Not available.

Snow Depth

Station Depth Elevation

Earthquake Activity

City Distance Mag. Time & Date
Minimum magnitude displayed is 2.5.

Coastal Water Temperatures

Place Temperature

Stations

Nearby Weather Stations

Station Location Temp. Windchill Dew Point Humidity Wind Precip. Elev Updated Type
                   

Watches & Warnings

There are currently no watches in effect.